Friday, August 01, 2014

  Over 45,111,151 pages visited!

GMT:
03:47
PACIFIC:
8:47:12 PM
MOUNTAIN:
9:47:12 PM

CENTRAL:
10:47:12 PM

EASTERN:
11:47:12 PM
ATLANTIC:
12:47:12 AM
NEWFOUNDLAND:
1:17:12 AM
 

 


Watches/Warnings
Current Conditions
Radar/Satellite
Lightning Images


Current Weather Conditions For TORONTO PEARSON,ON

 


A Few Clouds
 

Temperature: 20C / 68F
Dew Point: 13 C / 55F
Humidity: 64 %
Pressure: 1017.4 mbs (30.04 inches)
Visibility: 24.1 kms (15 SM)
Wind Direction: SW (230)
Wind Speed: 14.8 Km/h (9.2 MPH)
Max Wind Gust: No Gusts
Humidex: N/A
WindChill: N/A
    

Observation Information

Date/Time: Thursday, July 31, 2014 @ 03:00Z
Local Time:
Metar Coded: CYYZ 010300Z 23008KT 15SM FEW110 20/13 A3005 RMK AC2 SLP174 DENSITY ALT 1100FT

 

 

                   1997-2014 The Ontario Weather Page